createdAt,value
2023-03-01T00:01:22.292Z,100.00
2023-03-01T00:03:49.352Z,100.00
2023-03-01T00:06:16.684Z,100.00
2023-03-01T00:08:43.407Z,100.00
2023-03-01T00:11:29.081Z,100.00
2023-03-01T00:13:58.492Z,100.00
2023-03-01T00:16:31.354Z,100.00
2023-03-01T00:18:58.415Z,100.00
2023-03-01T00:21:27.156Z,100.00
2023-03-01T00:23:54.260Z,100.00
2023-03-01T00:26:23.650Z,100.00
2023-03-01T00:28:50.488Z,100.00
2023-03-01T00:31:20.451Z,100.00
2023-03-01T00:33:47.588Z,100.00
2023-03-01T00:36:16.252Z,100.00
2023-03-01T00:38:45.771Z,100.00
2023-03-01T00:41:17.542Z,100.00
2023-03-01T00:43:47.833Z,100.00
2023-03-01T00:46:20.447Z,100.00
2023-03-01T00:48:47.383Z,100.00
2023-03-01T00:51:26.540Z,100.00
2023-03-01T00:53:55.325Z,100.00
2023-03-01T00:56:22.372Z,100.00
2023-03-01T00:58:49.223Z,100.00
2023-03-01T01:01:22.140Z,100.00
2023-03-01T01:03:52.029Z,100.00
2023-03-01T01:06:36.896Z,100.00
2023-03-01T01:09:05.846Z,100.00
2023-03-01T01:11:32.527Z,100.00
2023-03-01T01:13:59.738Z,100.00
2023-03-01T01:16:28.789Z,100.00
2023-03-01T01:18:57.395Z,100.00
2023-03-01T01:21:25.363Z,100.00
2023-03-01T01:23:52.586Z,100.00
2023-03-01T01:26:22.527Z,100.00
2023-03-01T01:28:49.826Z,100.00
2023-03-01T01:31:16.971Z,100.00
2023-03-01T01:33:43.738Z,100.00
2023-03-01T01:36:10.946Z,100.00
2023-03-01T01:38:38.838Z,100.00
2023-03-01T01:41:06.972Z,100.00
2023-03-01T01:43:45.099Z,100.00
2023-03-01T01:46:28.921Z,100.00
2023-03-01T01:49:02.779Z,100.00
2023-03-01T01:51:39.422Z,100.00
2023-03-01T01:54:15.083Z,100.00
2023-03-01T01:56:45.708Z,100.00
2023-03-01T01:59:13.078Z,100.00
2023-03-01T02:01:39.856Z,100.00
2023-03-01T02:04:09.742Z,100.00
2023-03-01T02:06:46.010Z,100.00
2023-03-01T02:09:16.607Z,100.00
2023-03-01T02:11:45.182Z,100.00
2023-03-01T02:14:12.031Z,100.00
2023-03-01T02:16:38.822Z,100.00
2023-03-01T02:19:06.213Z,100.00
2023-03-01T02:21:35.884Z,100.00
2023-03-01T02:24:15.278Z,100.00
2023-03-01T02:26:46.916Z,100.00
2023-03-01T02:29:13.619Z,100.00
2023-03-01T02:31:43.129Z,100.00
2023-03-01T02:34:14.516Z,100.00
2023-03-01T02:36:48.536Z,100.00
2023-03-01T02:39:29.949Z,100.00
2023-03-01T02:41:58.767Z,100.00
2023-03-01T02:44:25.652Z,100.00
2023-03-01T02:46:56.167Z,100.00
2023-03-01T02:49:32.754Z,100.00
2023-03-01T02:52:30.147Z,100.00
2023-03-01T02:55:02.026Z,100.00
2023-03-01T02:57:31.018Z,100.00
2023-03-01T03:00:00.829Z,100.00
2023-03-01T03:02:37.390Z,100.00
2023-03-01T03:05:09.200Z,100.00
2023-03-01T03:07:38.319Z,100.00
2023-03-01T03:10:08.148Z,100.00
2023-03-01T03:12:34.888Z,100.00
2023-03-01T03:15:01.634Z,100.00
2023-03-01T03:17:28.308Z,100.00
2023-03-01T03:19:55.067Z,100.00
2023-03-01T03:22:21.745Z,100.00
2023-03-01T03:24:48.397Z,100.00
2023-03-01T03:27:15.081Z,100.00
2023-03-01T03:29:41.781Z,100.00
2023-03-01T03:32:08.442Z,100.00
2023-03-01T03:34:35.206Z,100.00
2023-03-01T03:37:01.939Z,100.00
2023-03-01T03:39:35.753Z,100.00
2023-03-01T03:42:02.936Z,100.00
2023-03-01T03:44:29.638Z,100.00
2023-03-01T03:46:56.324Z,100.00
2023-03-01T03:49:22.985Z,100.00
2023-03-01T03:51:49.626Z,100.00
2023-03-01T03:54:16.433Z,100.00
2023-03-01T03:56:45.011Z,100.00
2023-03-01T03:59:12.422Z,100.00
2023-03-01T04:01:39.126Z,100.00
2023-03-01T04:04:05.874Z,100.00
2023-03-01T04:06:32.912Z,100.00
2023-03-01T04:09:03.411Z,100.00
2023-03-01T04:11:30.073Z,100.00
2023-03-01T04:13:59.064Z,100.00
2023-03-01T04:16:26.151Z,100.00
2023-03-01T04:18:54.446Z,100.00
2023-03-01T04:21:21.455Z,100.00
2023-03-01T04:23:48.209Z,100.00
2023-03-01T04:26:14.954Z,100.00
2023-03-01T04:28:45.960Z,100.00
2023-03-01T04:31:14.934Z,100.00
2023-03-01T04:33:52.892Z,100.00
2023-03-01T04:36:22.814Z,100.00
2023-03-01T04:38:49.818Z,100.00
2023-03-01T04:41:19.153Z,100.00
2023-03-01T04:43:46.325Z,100.00
2023-03-01T04:46:15.989Z,100.00
2023-03-01T04:48:44.389Z,100.00
2023-03-01T04:51:14.277Z,100.00
2023-03-01T04:53:42.003Z,100.00
2023-03-01T04:56:09.009Z,100.00
2023-03-01T04:58:35.700Z,100.00
2023-03-01T05:01:02.352Z,100.00
2023-03-01T05:03:29.695Z,100.00
2023-03-01T05:06:00.587Z,100.00
2023-03-01T05:08:27.921Z,100.00
2023-03-01T05:10:55.357Z,100.00
2023-03-01T05:13:22.688Z,100.00
2023-03-01T05:15:57.613Z,100.00
2023-03-01T05:18:28.439Z,100.00
2023-03-01T05:20:59.323Z,100.00
2023-03-01T05:23:26.450Z,100.00
2023-03-01T05:25:53.315Z,100.00
2023-03-01T05:28:21.239Z,100.00
2023-03-01T05:30:48.301Z,100.00
2023-03-01T05:33:16.143Z,100.00
2023-03-01T05:35:44.920Z,100.00
2023-03-01T05:38:15.696Z,100.00
2023-03-01T05:40:47.118Z,100.00
2023-03-01T05:43:15.752Z,100.00
2023-03-01T05:45:43.242Z,100.00
2023-03-01T05:48:11.105Z,100.00
2023-03-01T05:50:41.538Z,100.00
2023-03-01T05:53:18.252Z,100.00
2023-03-01T05:55:47.141Z,100.00
2023-03-01T05:58:20.796Z,100.00
2023-03-01T06:00:49.311Z,100.00
2023-03-01T06:03:17.659Z,100.00
2023-03-01T06:05:45.180Z,100.00
2023-03-01T06:08:13.033Z,100.00
2023-03-01T06:10:40.171Z,100.00
2023-03-01T06:13:06.869Z,100.00
2023-03-01T06:15:33.662Z,100.00
2023-03-01T06:18:00.619Z,100.00
2023-03-01T06:20:29.753Z,100.00
2023-03-01T06:22:56.979Z,100.00
2023-03-01T06:25:25.852Z,100.00
2023-03-01T06:27:53.527Z,100.00
2023-03-01T06:30:22.842Z,100.00
2023-03-01T06:32:50.548Z,100.00
2023-03-01T06:35:18.935Z,100.00
2023-03-01T06:37:47.468Z,100.00
2023-03-01T06:40:14.978Z,100.00
2023-03-01T06:42:44.366Z,100.00
2023-03-01T06:45:11.915Z,100.00
2023-03-01T06:47:38.605Z,100.00
2023-03-01T06:50:05.611Z,100.00
2023-03-01T06:52:32.749Z,100.00
2023-03-01T06:54:59.802Z,100.00
2023-03-01T06:57:27.397Z,100.00
2023-03-01T06:59:54.103Z,100.00
2023-03-01T07:02:20.853Z,100.00
2023-03-01T07:04:47.490Z,100.00
2023-03-01T07:07:14.076Z,100.00
2023-03-01T07:09:40.823Z,100.00
2023-03-01T07:12:07.639Z,100.00
2023-03-01T07:14:34.432Z,100.00
2023-03-01T07:17:01.363Z,100.00
2023-03-01T07:19:28.251Z,100.00
2023-03-01T07:21:56.465Z,100.00
2023-03-01T07:24:23.462Z,100.00
2023-03-01T07:26:51.333Z,100.00
2023-03-01T07:29:18.985Z,100.00
2023-03-01T07:31:46.216Z,100.00
2023-03-01T07:34:12.940Z,100.00
2023-03-01T07:36:40.576Z,100.00
2023-03-01T07:39:07.568Z,100.00
2023-03-01T07:41:34.245Z,100.00
2023-03-01T07:44:01.281Z,100.00
2023-03-01T07:46:28.148Z,100.00
2023-03-01T07:48:54.913Z,100.00
2023-03-01T07:51:22.303Z,100.00
2023-03-01T07:53:49.751Z,100.00
2023-03-01T07:56:20.605Z,100.00
2023-03-01T07:58:49.230Z,100.00
2023-03-01T08:01:19.207Z,100.00
2023-03-01T08:03:46.444Z,100.00
2023-03-01T08:06:14.735Z,100.00
2023-03-01T08:08:41.619Z,100.00
2023-03-01T08:11:11.224Z,100.00
2023-03-01T08:13:38.001Z,100.00
2023-03-01T08:16:07.466Z,100.00
2023-03-01T08:18:34.763Z,100.00
2023-03-01T08:21:10.163Z,100.00
2023-03-01T08:23:36.885Z,100.00
2023-03-01T08:26:08.602Z,100.00
2023-03-01T08:28:35.897Z,100.00
2023-03-01T08:31:02.713Z,100.00
2023-03-01T08:33:29.796Z,100.00
2023-03-01T08:36:07.926Z,100.00
2023-03-01T08:38:35.949Z,100.00
2023-03-01T08:41:04.021Z,100.00
2023-03-01T08:43:31.498Z,100.00
2023-03-01T08:45:58.254Z,100.00
2023-03-01T08:48:25.236Z,100.00
2023-03-01T08:50:51.934Z,100.00
2023-03-01T08:53:18.573Z,100.00
2023-03-01T08:55:45.179Z,100.00
2023-03-01T08:58:13.443Z,100.00
2023-03-01T09:00:41.265Z,100.00
2023-03-01T09:03:08.134Z,100.00
2023-03-01T09:05:35.243Z,100.00
2023-03-01T09:08:02.199Z,100.00
2023-03-01T09:10:28.983Z,100.00
2023-03-01T09:12:55.584Z,100.00
2023-03-01T09:15:22.205Z,100.00
2023-03-01T09:17:48.814Z,100.00
2023-03-01T09:20:15.514Z,100.00
2023-03-01T09:22:42.199Z,100.00
2023-03-01T09:25:09.066Z,100.00
2023-03-01T09:27:35.758Z,100.00
2023-03-01T09:30:03.189Z,100.00
2023-03-01T09:32:32.114Z,100.00
2023-03-01T09:35:05.703Z,100.00
2023-03-01T09:37:38.630Z,100.00
2023-03-01T09:40:07.802Z,100.00
2023-03-01T09:42:36.932Z,100.00
2023-03-01T09:45:12.849Z,100.00
2023-03-01T09:47:41.404Z,100.00
2023-03-01T09:50:18.562Z,100.00
2023-03-01T09:53:10.194Z,99.93
2023-03-01T09:55:49.379Z,97.95
2023-03-01T09:58:29.255Z,94.99
2023-03-01T10:01:00.480Z,97.38
2023-03-01T10:03:45.962Z,97.61
2023-03-01T10:06:33.910Z,94.11
2023-03-01T10:09:16.916Z,93.55
2023-03-01T10:11:53.896Z,97.81
2023-03-01T10:14:49.395Z,96.16
2023-03-01T10:17:37.264Z,96.20
2023-03-01T10:20:22.164Z,98.12
2023-03-01T10:22:53.560Z,97.55
2023-03-01T10:25:43.486Z,93.25
2023-03-01T10:28:25.419Z,94.77
2023-03-01T10:30:53.230Z,91.65
2023-03-01T10:33:31.635Z,100.00
2023-03-01T10:35:58.401Z,98.47
2023-03-01T10:38:25.484Z,98.94
2023-03-01T10:40:58.063Z,100.00
2023-03-01T10:43:27.906Z,100.00
2023-03-01T10:45:54.752Z,97.85
2023-03-01T10:48:25.433Z,93.87
2023-03-01T10:51:07.558Z,94.38
2023-03-01T10:53:41.597Z,93.32
2023-03-01T10:56:16.816Z,92.89
2023-03-01T10:59:02.074Z,92.45
2023-03-01T11:01:33.654Z,97.38
2023-03-01T11:04:13.594Z,93.86
2023-03-01T11:06:42.086Z,89.11
2023-03-01T11:09:20.233Z,90.01
2023-03-01T11:11:52.557Z,92.79
2023-03-01T11:14:27.242Z,93.12
2023-03-01T11:17:06.908Z,97.91
2023-03-01T11:19:34.165Z,88.74
2023-03-01T11:22:06.509Z,87.94
2023-03-01T11:24:42.218Z,91.46
2023-03-01T11:27:24.106Z,88.66
2023-03-01T11:29:58.584Z,86.20
2023-03-01T11:32:29.169Z,85.72
2023-03-01T11:35:03.159Z,85.10
2023-03-01T11:37:36.591Z,83.17
2023-03-01T11:40:11.906Z,84.22
2023-03-01T11:42:56.728Z,79.29
2023-03-01T11:45:31.174Z,89.38
2023-03-01T11:48:24.146Z,86.86
2023-03-01T11:50:51.656Z,82.20
2023-03-01T11:53:41.543Z,86.90
2023-03-01T11:56:29.760Z,85.16
2023-03-01T11:59:35.327Z,86.20
2023-03-01T12:02:43.984Z,93.79
2023-03-01T12:05:47.352Z,94.58
2023-03-01T12:08:38.328Z,89.74
2023-03-01T12:11:14.058Z,82.66
2023-03-01T12:13:53.179Z,77.70
2023-03-01T12:16:45.931Z,85.01
2023-03-01T12:19:34.825Z,86.70
2023-03-01T12:22:11.680Z,88.72
2023-03-01T12:25:06.253Z,93.91
2023-03-01T12:28:02.605Z,84.58
2023-03-01T12:30:38.444Z,86.07
2023-03-01T12:33:17.209Z,85.49
2023-03-01T12:36:14.368Z,82.46
2023-03-01T12:38:53.924Z,79.37
2023-03-01T12:41:45.809Z,78.18
2023-03-01T12:44:39.664Z,85.43
2023-03-01T12:47:20.813Z,77.13
2023-03-01T12:49:55.434Z,77.63
2023-03-01T12:52:42.089Z,76.74
2023-03-01T12:55:26.359Z,73.92
2023-03-01T12:57:58.526Z,77.29
2023-03-01T13:00:42.872Z,74.21
2023-03-01T13:03:24.817Z,71.94
2023-03-01T13:06:05.728Z,73.28
2023-03-01T13:09:09.349Z,73.99
2023-03-01T13:11:36.156Z,75.76
2023-03-01T13:14:23.814Z,77.32
2023-03-01T13:16:52.334Z,78.19
2023-03-01T13:19:24.502Z,82.35
2023-03-01T13:21:55.096Z,78.91
2023-03-01T13:24:39.762Z,84.42
2023-03-01T13:27:12.036Z,81.91
2023-03-01T13:29:50.253Z,87.63
2023-03-01T13:32:23.540Z,85.66
2023-03-01T13:35:20.690Z,84.81
2023-03-01T13:37:47.766Z,86.05
2023-03-01T13:40:17.859Z,82.82
2023-03-01T13:42:56.179Z,83.20
2023-03-01T13:45:40.914Z,84.58
2023-03-01T13:48:16.161Z,81.65
2023-03-01T13:50:53.970Z,83.45
2023-03-01T13:53:25.814Z,80.49
2023-03-01T13:55:59.971Z,81.44
2023-03-01T13:58:31.374Z,78.92
2023-03-01T14:01:21.599Z,76.73
2023-03-01T14:03:48.382Z,75.55
2023-03-01T14:06:21.352Z,80.12
2023-03-01T14:08:50.562Z,80.45
2023-03-01T14:11:38.608Z,80.52
2023-03-01T14:14:19.505Z,82.07
2023-03-01T14:17:10.071Z,83.06
2023-03-01T14:19:36.897Z,83.05
2023-03-01T14:22:18.789Z,80.02
2023-03-01T14:24:55.433Z,82.39
2023-03-01T14:27:23.429Z,83.44
2023-03-01T14:30:02.194Z,82.40
2023-03-01T14:32:31.520Z,80.13
2023-03-01T14:35:00.511Z,77.64
2023-03-01T14:37:35.637Z,83.55
2023-03-01T14:40:05.100Z,80.59
2023-03-01T14:42:37.357Z,82.83
2023-03-01T14:45:06.468Z,82.12
2023-03-01T14:47:35.922Z,77.86
2023-03-01T14:50:17.614Z,80.08
2023-03-01T14:52:47.979Z,82.32
2023-03-01T14:55:19.234Z,84.71
2023-03-01T14:57:49.889Z,84.59
2023-03-01T15:00:25.111Z,84.55
2023-03-01T15:02:54.347Z,85.55
2023-03-01T15:05:29.562Z,84.73
2023-03-01T15:07:58.461Z,84.33
2023-03-01T15:10:31.165Z,82.50
2023-03-01T15:13:31.181Z,80.57
2023-03-01T15:16:08.040Z,80.52
2023-03-01T15:18:36.403Z,81.55
2023-03-01T15:21:08.852Z,80.59
2023-03-01T15:23:39.417Z,78.36
2023-03-01T15:26:06.275Z,78.18
2023-03-01T15:28:35.559Z,79.04
2023-03-01T15:31:24.442Z,78.56
2023-03-01T15:33:52.317Z,78.33
2023-03-01T15:36:42.711Z,77.89
2023-03-01T15:39:31.347Z,76.37
2023-03-01T15:41:58.192Z,77.44
2023-03-01T15:44:41.558Z,79.03
2023-03-01T15:47:28.566Z,79.73
2023-03-01T15:49:57.711Z,81.15
2023-03-01T15:52:31.942Z,80.05
2023-03-01T15:55:06.310Z,80.62
2023-03-01T15:57:33.019Z,79.98
2023-03-01T15:59:59.713Z,80.44
2023-03-01T16:02:26.614Z,81.52
2023-03-01T16:04:54.754Z,82.44
2023-03-01T16:07:21.437Z,82.23
2023-03-01T16:09:48.149Z,82.69
2023-03-01T16:12:17.464Z,84.29
2023-03-01T16:14:44.191Z,84.76
2023-03-01T16:17:14.162Z,84.93
2023-03-01T16:19:42.047Z,86.41
2023-03-01T16:22:11.755Z,86.52
2023-03-01T16:24:38.522Z,86.98
2023-03-01T16:27:05.142Z,87.79
2023-03-01T16:29:31.858Z,88.58
2023-03-01T16:32:02.260Z,90.09
2023-03-01T16:34:29.411Z,89.30
2023-03-01T16:36:56.059Z,89.47
2023-03-01T16:39:23.583Z,89.64
2023-03-01T16:41:50.268Z,90.05
2023-03-01T16:44:16.918Z,90.43
2023-03-01T16:46:44.502Z,90.84
2023-03-01T16:49:11.179Z,93.14
2023-03-01T16:51:38.062Z,93.44
2023-03-01T16:54:06.330Z,93.00
2023-03-01T16:56:35.674Z,92.85
2023-03-01T16:59:04.620Z,92.87
2023-03-01T17:01:38.546Z,93.67
2023-03-01T17:04:05.580Z,93.71
2023-03-01T17:06:33.432Z,93.98
2023-03-01T17:09:00.440Z,95.44
2023-03-01T17:11:27.425Z,96.32
2023-03-01T17:13:54.243Z,96.12
2023-03-01T17:16:21.717Z,97.63
2023-03-01T17:18:49.527Z,98.81
2023-03-01T17:21:17.520Z,98.15
2023-03-01T17:23:46.261Z,98.33
2023-03-01T17:26:13.682Z,97.87
2023-03-01T17:28:41.256Z,97.33
2023-03-01T17:31:08.204Z,97.86
2023-03-01T17:33:35.476Z,97.43
2023-03-01T17:36:02.582Z,97.24
2023-03-01T17:38:29.477Z,97.81
2023-03-01T17:40:59.323Z,97.80
2023-03-01T17:43:26.097Z,97.54
2023-03-01T17:45:54.586Z,98.01
2023-03-01T17:48:21.369Z,99.47
2023-03-01T17:50:48.326Z,99.65
2023-03-01T17:53:15.520Z,99.07
2023-03-01T17:55:43.912Z,98.64
2023-03-01T17:58:15.860Z,99.17
2023-03-01T18:00:42.563Z,99.43
2023-03-01T18:03:10.210Z,98.66
2023-03-01T18:05:38.106Z,98.86
2023-03-01T18:08:05.082Z,98.66
2023-03-01T18:10:33.403Z,98.31
2023-03-01T18:13:00.127Z,97.35
2023-03-01T18:15:27.436Z,97.35
2023-03-01T18:17:54.307Z,97.78
2023-03-01T18:20:21.602Z,97.13
2023-03-01T18:22:49.214Z,96.38
2023-03-01T18:25:15.974Z,95.84
2023-03-01T18:27:42.710Z,95.15
2023-03-01T18:30:10.334Z,95.56
2023-03-01T18:32:39.578Z,95.37
2023-03-01T18:35:07.596Z,97.70
2023-03-01T18:37:34.319Z,97.59
2023-03-01T18:40:01.002Z,97.71
2023-03-01T18:42:27.759Z,96.52
2023-03-01T18:44:54.415Z,95.69
2023-03-01T18:47:21.099Z,94.67
2023-03-01T18:49:47.750Z,94.12
2023-03-01T18:52:14.467Z,93.85
2023-03-01T18:54:41.090Z,93.49
2023-03-01T18:57:07.744Z,93.16
2023-03-01T18:59:34.443Z,93.23
2023-03-01T19:02:01.306Z,93.23
2023-03-01T19:04:28.191Z,93.82
2023-03-01T19:06:54.856Z,93.48
2023-03-01T19:09:21.618Z,93.17
2023-03-01T19:11:48.226Z,93.39
2023-03-01T19:14:14.886Z,93.01
2023-03-01T19:16:41.608Z,92.59
2023-03-01T19:19:10.130Z,92.08
2023-03-01T19:21:37.367Z,92.53
2023-03-01T19:24:04.530Z,93.74
2023-03-01T19:26:32.675Z,98.07
2023-03-01T19:29:00.154Z,99.64
2023-03-01T19:31:29.592Z,99.11
2023-03-01T19:34:10.612Z,99.12
2023-03-01T19:36:41.777Z,100.00
2023-03-01T19:39:10.100Z,100.00
2023-03-01T19:41:36.906Z,100.00
2023-03-01T19:44:05.849Z,100.00
2023-03-01T19:46:33.757Z,100.00
2023-03-01T19:49:03.038Z,100.00
2023-03-01T19:51:33.260Z,100.00
2023-03-01T19:53:59.964Z,100.00
2023-03-01T19:56:26.797Z,100.00
2023-03-01T19:59:00.147Z,100.00
2023-03-01T20:01:32.820Z,100.00
2023-03-01T20:04:03.016Z,100.00
2023-03-01T20:06:30.446Z,100.00
2023-03-01T20:08:57.911Z,100.00
2023-03-01T20:11:24.764Z,100.00
2023-03-01T20:13:51.457Z,100.00
2023-03-01T20:16:20.034Z,100.00
2023-03-01T20:18:46.961Z,100.00
2023-03-01T20:21:23.571Z,100.00
2023-03-01T20:23:51.964Z,100.00
2023-03-01T20:26:21.487Z,100.00
2023-03-01T20:28:50.476Z,100.00
2023-03-01T20:31:19.868Z,100.00
2023-03-01T20:33:46.797Z,100.00
2023-03-01T20:36:13.941Z,99.57
2023-03-01T20:38:40.738Z,98.40
2023-03-01T20:41:12.286Z,97.08
2023-03-01T20:43:41.615Z,96.86
2023-03-01T20:46:14.890Z,96.63
2023-03-01T20:48:43.073Z,95.95
2023-03-01T20:51:11.092Z,96.58
2023-03-01T20:53:37.937Z,95.88
2023-03-01T20:56:07.465Z,95.40
2023-03-01T20:58:35.729Z,94.86
2023-03-01T21:01:04.506Z,93.98
2023-03-01T21:03:31.656Z,93.51
2023-03-01T21:06:02.029Z,93.09
2023-03-01T21:08:29.709Z,92.92
2023-03-01T21:10:57.657Z,93.75
2023-03-01T21:13:25.979Z,93.86
2023-03-01T21:16:03.375Z,94.93
2023-03-01T21:18:31.762Z,94.04
2023-03-01T21:21:03.951Z,94.03
2023-03-01T21:23:32.457Z,94.34
2023-03-01T21:26:11.383Z,93.68
2023-03-01T21:28:39.681Z,92.61
2023-03-01T21:31:31.900Z,93.06
2023-03-01T21:34:00.504Z,94.33
2023-03-01T21:36:28.969Z,93.32
2023-03-01T21:38:55.810Z,93.94
2023-03-01T21:41:25.407Z,93.77
2023-03-01T21:43:54.679Z,94.22
2023-03-01T21:46:24.112Z,95.00
2023-03-01T21:48:52.216Z,93.89
2023-03-01T21:51:20.838Z,93.44
2023-03-01T21:53:47.842Z,93.79
2023-03-01T21:56:22.703Z,94.14
2023-03-01T21:58:49.766Z,93.34
2023-03-01T22:01:20.087Z,93.60
2023-03-01T22:03:47.454Z,94.68
2023-03-01T22:06:19.864Z,95.04
2023-03-01T22:08:51.676Z,94.50
2023-03-01T22:11:19.971Z,95.53
2023-03-01T22:13:49.514Z,94.85
2023-03-01T22:16:17.347Z,94.69
2023-03-01T22:18:44.064Z,94.45
2023-03-01T22:21:11.634Z,95.35
2023-03-01T22:23:39.939Z,94.67
2023-03-01T22:26:07.707Z,94.74
2023-03-01T22:28:34.683Z,95.86
2023-03-01T22:31:05.355Z,95.94
2023-03-01T22:33:32.842Z,96.81
2023-03-01T22:35:59.557Z,95.84
2023-03-01T22:38:26.388Z,95.91
2023-03-01T22:40:57.725Z,95.87
2023-03-01T22:43:24.575Z,96.35
2023-03-01T22:45:51.397Z,95.91
2023-03-01T22:48:18.075Z,94.82
2023-03-01T22:50:46.237Z,96.04
2023-03-01T22:53:13.069Z,96.99
2023-03-01T22:55:40.608Z,98.64
2023-03-01T22:58:07.503Z,99.36
2023-03-01T23:00:35.320Z,98.97
2023-03-01T23:03:02.569Z,99.37
2023-03-01T23:05:29.339Z,99.32
2023-03-01T23:07:55.977Z,99.06
2023-03-01T23:10:22.681Z,99.65
2023-03-01T23:12:49.446Z,100.00
2023-03-01T23:15:16.087Z,100.00
2023-03-01T23:17:42.728Z,100.00
2023-03-01T23:20:10.439Z,100.00
2023-03-01T23:22:38.290Z,100.00
2023-03-01T23:25:05.737Z,100.00
2023-03-01T23:27:32.451Z,100.00
2023-03-01T23:29:59.762Z,100.00
2023-03-01T23:32:26.481Z,100.00
2023-03-01T23:34:53.155Z,100.00
2023-03-01T23:37:19.801Z,100.00
2023-03-01T23:39:46.426Z,100.00
2023-03-01T23:42:13.044Z,100.00
2023-03-01T23:44:40.804Z,100.00
2023-03-01T23:47:07.629Z,100.00
2023-03-01T23:49:34.330Z,100.00
2023-03-01T23:52:01.635Z,100.00
2023-03-01T23:54:28.309Z,100.00
2023-03-01T23:56:55.048Z,100.00
2023-03-01T23:59:23.506Z,100.00
